John M. Rivers (jr) — WDB8997 — position and weather

sailwx.info

Track history (hours):
 
Tides and Currents Weather Stations Pressure Air Temp Water Temp Dewpoint Dewpoint Depression Visibility Wind Speed Wind Dir Waves Ship Positions

John M. Rivers (jr)

Owner: INGRAM BARGE COMPANY, Nashville, TN. More information available from US FCC via Universal Licensing System and Coast Guard Vessel Documentation Center.

Last reported at 2017-Jun-16 05:16 UTC. Time now 2017-Jun-23 03:29 UTC.
Position N 40°42' W 091°07'.

Length 48 m; draft 2.9 m.

Type: Towing. MMSI: 366967620.

Date/timePositionNaut miles runAvg speedWind from/ knotsBaromVisibWave heightAir tempDewpointWater temp
2017-Jun-16 05:16N 40°42' W 091°07'4 5.5
2017-Jun-16 04:34N 40°46' W 091°06'1 6.2
2017-Jun-16 04:29N 40°46' W 091°06'3 6.2
2017-Jun-16 04:00N 40°49' W 091°06'3 6.1
2017-Jun-16 03:30N 40°51' W 091°03'2 4.0
2017-Jun-16 03:00N 40°53' W 091°01'0 0.3
2017-Jun-16 02:30N 40°53' W 091°01'0 0.0
2017-Jun-16 02:00N 40°53' W 091°01'0 0.6
2017-Jun-16 01:30N 40°53' W 091°01'1 2.8
2017-Jun-16 01:00N 40°54' W 091°00'3 5.3
2017-Jun-16 00:30N 40°56' W 090°58'3 5.2
2017-Jun-16 00:00N 40°59' W 090°57'3 5.4
2017-Jun-15 23:30N 41°01' W 090°57'3 6.1
2017-Jun-15 23:00N 41°05' W 090°57'  
Track history (hours):
 
Tides and Currents Weather Stations Pressure Air Temp Water Temp Dewpoint Dewpoint Depression Visibility Wind Speed Wind Dir Waves Ship Positions

John M. Rivers (jr)

Owner: INGRAM BARGE COMPANY, Nashville, TN. More information available from US FCC via Universal Licensing System and Coast Guard Vessel Documentation Center.

Last reported at 2017-Jun-16 05:16 UTC. Time now 2017-Jun-23 03:29 UTC.
Position N 40°42' W 091°07'.

Length 48 m; draft 2.9 m.

Type: Towing. MMSI: 366967620.

Date/timePositionNaut miles runAvg speedWind from/ knotsBaromVisibWave heightAir tempDewpointWater temp
2017-Jun-16 05:16N 40°42' W 091°07'4 5.5
2017-Jun-16 04:34N 40°46' W 091°06'1 6.2
2017-Jun-16 04:29N 40°46' W 091°06'3 6.2
2017-Jun-16 04:00N 40°49' W 091°06'3 6.1
2017-Jun-16 03:30N 40°51' W 091°03'2 4.0
2017-Jun-16 03:00N 40°53' W 091°01'0 0.3
2017-Jun-16 02:30N 40°53' W 091°01'0 0.0
2017-Jun-16 02:00N 40°53' W 091°01'0 0.6
2017-Jun-16 01:30N 40°53' W 091°01'1 2.8
2017-Jun-16 01:00N 40°54' W 091°00'3 5.3
2017-Jun-16 00:30N 40°56' W 090°58'3 5.2
2017-Jun-16 00:00N 40°59' W 090°57'3 5.4
2017-Jun-15 23:30N 41°01' W 090°57'3 6.1
2017-Jun-15 23:00N 41°05' W 090°57'  

Dump ship's entire track history